sensor_id;sensor_type;location;lat;lon;timestamp;temperature;humidity
18388;DHT22;9320;50.256;19.026;2023-08-06T00:01:54;19.10;99.90
18388;DHT22;9320;50.256;19.026;2023-08-06T00:04:22;19.10;99.90
18388;DHT22;9320;50.256;19.026;2023-08-06T00:06:50;19.10;99.90
18388;DHT22;9320;50.256;19.026;2023-08-06T00:09:18;19.10;99.90
18388;DHT22;9320;50.256;19.026;2023-08-06T00:11:46;19.20;99.90
18388;DHT22;9320;50.256;19.026;2023-08-06T00:14:14;19.20;99.90
18388;DHT22;9320;50.256;19.026;2023-08-06T00:16:45;19.20;99.90
18388;DHT22;9320;50.256;19.026;2023-08-06T00:19:13;19.20;99.90
18388;DHT22;9320;50.256;19.026;2023-08-06T00:21:42;19.20;99.90
18388;DHT22;9320;50.256;19.026;2023-08-06T00:24:10;19.20;99.90
18388;DHT22;9320;50.256;19.026;2023-08-06T00:26:38;19.20;99.90
18388;DHT22;9320;50.256;19.026;2023-08-06T00:29:06;19.30;99.90
18388;DHT22;9320;50.256;19.026;2023-08-06T00:31:34;19.20;99.90
18388;DHT22;9320;50.256;19.026;2023-08-06T00:34:03;19.20;99.90
18388;DHT22;9320;50.256;19.026;2023-08-06T00:36:31;19.10;99.90
18388;DHT22;9320;50.256;19.026;2023-08-06T00:38:59;19.10;99.90
18388;DHT22;9320;50.256;19.026;2023-08-06T00:41:27;19.20;99.90
18388;DHT22;9320;50.256;19.026;2023-08-06T00:43:55;19.20;99.90
18388;DHT22;9320;50.256;19.026;2023-08-06T00:46:23;19.20;99.90
18388;DHT22;9320;50.256;19.026;2023-08-06T00:48:51;19.20;99.90
18388;DHT22;9320;50.256;19.026;2023-08-06T00:51:21;19.20;99.90
18388;DHT22;9320;50.256;19.026;2023-08-06T00:53:50;19.10;99.90
18388;DHT22;9320;50.256;19.026;2023-08-06T00:56:19;19.10;99.90
18388;DHT22;9320;50.256;19.026;2023-08-06T00:58:47;19.10;99.90
18388;DHT22;9320;50.256;19.026;2023-08-06T01:01:15;19.10;99.90
18388;DHT22;9320;50.256;19.026;2023-08-06T01:03:43;19.10;99.90
18388;DHT22;9320;50.256;19.026;2023-08-06T01:06:11;19.20;99.90
18388;DHT22;9320;50.256;19.026;2023-08-06T01:08:48;19.10;99.90
18388;DHT22;9320;50.256;19.026;2023-08-06T01:11:26;19.10;99.90
18388;DHT22;9320;50.256;19.026;2023-08-06T01:14:05;19.20;99.90
18388;DHT22;9320;50.256;19.026;2023-08-06T01:16:36;19.10;99.90
18388;DHT22;9320;50.256;19.026;2023-08-06T01:19:15;19.10;99.90
18388;DHT22;9320;50.256;19.026;2023-08-06T01:21:45;19.00;99.90
18388;DHT22;9320;50.256;19.026;2023-08-06T01:24:13;19.10;99.90
18388;DHT22;9320;50.256;19.026;2023-08-06T01:26:45;19.10;99.90
18388;DHT22;9320;50.256;19.026;2023-08-06T01:29:21;19.10;99.90
18388;DHT22;9320;50.256;19.026;2023-08-06T01:31:51;19.20;99.90
18388;DHT22;9320;50.256;19.026;2023-08-06T01:34:22;19.20;99.90
18388;DHT22;9320;50.256;19.026;2023-08-06T01:36:53;19.10;99.90
18388;DHT22;9320;50.256;19.026;2023-08-06T01:39:21;19.10;99.90
18388;DHT22;9320;50.256;19.026;2023-08-06T01:41:49;19.10;99.90
18388;DHT22;9320;50.256;19.026;2023-08-06T01:44:18;19.10;99.90
18388;DHT22;9320;50.256;19.026;2023-08-06T01:46:46;19.20;99.90
18388;DHT22;9320;50.256;19.026;2023-08-06T01:49:14;19.20;99.90
18388;DHT22;9320;50.256;19.026;2023-08-06T01:51:42;19.20;99.90
18388;DHT22;9320;50.256;19.026;2023-08-06T01:54:11;19.10;99.90
18388;DHT22;9320;50.256;19.026;2023-08-06T01:56:39;19.20;99.90
18388;DHT22;9320;50.256;19.026;2023-08-06T01:59:07;19.20;99.90
18388;DHT22;9320;50.256;19.026;2023-08-06T02:01:35;19.20;99.90
18388;DHT22;9320;50.256;19.026;2023-08-06T02:04:03;19.20;99.90
18388;DHT22;9320;50.256;19.026;2023-08-06T02:06:31;19.20;99.90
18388;DHT22;9320;50.256;19.026;2023-08-06T02:09:00;19.20;99.90
18388;DHT22;9320;50.256;19.026;2023-08-06T02:11:29;19.20;99.90
18388;DHT22;9320;50.256;19.026;2023-08-06T02:13:57;19.20;99.90
18388;DHT22;9320;50.256;19.026;2023-08-06T02:16:25;19.20;99.90
18388;DHT22;9320;50.256;19.026;2023-08-06T02:18:53;19.20;99.90
18388;DHT22;9320;50.256;19.026;2023-08-06T02:21:21;19.20;99.90
18388;DHT22;9320;50.256;19.026;2023-08-06T02:23:49;19.20;99.90
18388;DHT22;9320;50.256;19.026;2023-08-06T02:26:17;19.20;99.90
18388;DHT22;9320;50.256;19.026;2023-08-06T02:28:46;19.20;99.90
18388;DHT22;9320;50.256;19.026;2023-08-06T02:31:14;19.30;99.90
18388;DHT22;9320;50.256;19.026;2023-08-06T02:33:43;19.30;99.90
18388;DHT22;9320;50.256;19.026;2023-08-06T02:36:11;19.40;99.90
18388;DHT22;9320;50.256;19.026;2023-08-06T02:38:39;19.40;99.90
18388;DHT22;9320;50.256;19.026;2023-08-06T02:41:07;19.40;99.90
18388;DHT22;9320;50.256;19.026;2023-08-06T02:43:35;19.40;99.90
18388;DHT22;9320;50.256;19.026;2023-08-06T02:46:04;19.40;99.90
18388;DHT22;9320;50.256;19.026;2023-08-06T02:48:32;19.40;99.90
18388;DHT22;9320;50.256;19.026;2023-08-06T02:51:00;19.30;99.90
18388;DHT22;9320;50.256;19.026;2023-08-06T02:53:28;19.30;99.90
18388;DHT22;9320;50.256;19.026;2023-08-06T02:55:56;19.20;99.90
18388;DHT22;9320;50.256;19.026;2023-08-06T02:58:25;19.20;99.90
18388;DHT22;9320;50.256;19.026;2023-08-06T03:01:00;19.30;99.90
18388;DHT22;9320;50.256;19.026;2023-08-06T03:03:31;19.40;99.90
18388;DHT22;9320;50.256;19.026;2023-08-06T03:05:59;19.40;99.90
18388;DHT22;9320;50.256;19.026;2023-08-06T03:08:27;19.40;99.90
18388;DHT22;9320;50.256;19.026;2023-08-06T03:10:55;19.40;99.90
18388;DHT22;9320;50.256;19.026;2023-08-06T03:13:24;19.40;99.90
18388;DHT22;9320;50.256;19.026;2023-08-06T03:15:52;19.40;99.90
18388;DHT22;9320;50.256;19.026;2023-08-06T03:18:21;19.40;99.90
18388;DHT22;9320;50.256;19.026;2023-08-06T03:20:51;19.50;99.90
18388;DHT22;9320;50.256;19.026;2023-08-06T03:23:19;19.50;99.90
18388;DHT22;9320;50.256;19.026;2023-08-06T03:25:47;19.40;99.90
18388;DHT22;9320;50.256;19.026;2023-08-06T03:28:15;19.40;99.90
18388;DHT22;9320;50.256;19.026;2023-08-06T03:30:43;19.40;99.90
18388;DHT22;9320;50.256;19.026;2023-08-06T03:33:11;19.40;99.90
18388;DHT22;9320;50.256;19.026;2023-08-06T03:35:39;19.50;99.90
18388;DHT22;9320;50.256;19.026;2023-08-06T03:38:09;19.50;99.90
18388;DHT22;9320;50.256;19.026;2023-08-06T03:40:37;19.50;99.90
18388;DHT22;9320;50.256;19.026;2023-08-06T03:43:05;19.50;99.90
18388;DHT22;9320;50.256;19.026;2023-08-06T03:45:33;19.50;99.90
18388;DHT22;9320;50.256;19.026;2023-08-06T03:48:01;19.60;99.90
18388;DHT22;9320;50.256;19.026;2023-08-06T03:50:29;19.60;99.90
18388;DHT22;9320;50.256;19.026;2023-08-06T03:52:57;19.60;99.90
18388;DHT22;9320;50.256;19.026;2023-08-06T03:55:26;19.60;99.90
18388;DHT22;9320;50.256;19.026;2023-08-06T03:57:54;19.60;99.90
18388;DHT22;9320;50.256;19.026;2023-08-06T04:00:22;19.60;99.90
18388;DHT22;9320;50.256;19.026;2023-08-06T04:02:50;19.60;99.90
18388;DHT22;9320;50.256;19.026;2023-08-06T04:05:18;19.60;99.90
18388;DHT22;9320;50.256;19.026;2023-08-06T04:07:46;19.60;99.90
18388;DHT22;9320;50.256;19.026;2023-08-06T04:10:14;19.60;99.90
18388;DHT22;9320;50.256;19.026;2023-08-06T04:12:44;19.60;99.90
18388;DHT22;9320;50.256;19.026;2023-08-06T04:15:12;19.60;99.90
18388;DHT22;9320;50.256;19.026;2023-08-06T04:17:40;19.60;99.90
18388;DHT22;9320;50.256;19.026;2023-08-06T04:20:09;19.60;99.90
18388;DHT22;9320;50.256;19.026;2023-08-06T04:22:37;19.60;99.90
18388;DHT22;9320;50.256;19.026;2023-08-06T04:25:06;19.70;99.90
18388;DHT22;9320;50.256;19.026;2023-08-06T04:27:34;19.60;99.90
18388;DHT22;9320;50.256;19.026;2023-08-06T04:30:06;19.60;99.90
18388;DHT22;9320;50.256;19.026;2023-08-06T04:32:36;19.60;99.90
18388;DHT22;9320;50.256;19.026;2023-08-06T04:35:05;19.60;99.90
18388;DHT22;9320;50.256;19.026;2023-08-06T04:37:33;19.60;99.90
18388;DHT22;9320;50.256;19.026;2023-08-06T04:40:01;19.50;99.90
18388;DHT22;9320;50.256;19.026;2023-08-06T04:42:29;19.60;99.90
18388;DHT22;9320;50.256;19.026;2023-08-06T04:44:57;19.60;99.90
18388;DHT22;9320;50.256;19.026;2023-08-06T04:47:26;19.60;99.90
18388;DHT22;9320;50.256;19.026;2023-08-06T04:49:54;19.60;99.90
18388;DHT22;9320;50.256;19.026;2023-08-06T04:52:22;19.60;99.90
18388;DHT22;9320;50.256;19.026;2023-08-06T04:54:54;19.60;99.90
18388;DHT22;9320;50.256;19.026;2023-08-06T04:57:22;19.70;99.90
18388;DHT22;9320;50.256;19.026;2023-08-06T04:59:50;19.60;99.90
18388;DHT22;9320;50.256;19.026;2023-08-06T05:02:18;19.70;99.90
18388;DHT22;9320;50.256;19.026;2023-08-06T05:04:47;19.60;99.90
18388;DHT22;9320;50.256;19.026;2023-08-06T05:07:15;19.70;99.90
18388;DHT22;9320;50.256;19.026;2023-08-06T05:09:44;19.70;99.90
18388;DHT22;9320;50.256;19.026;2023-08-06T05:12:12;19.80;99.90
18388;DHT22;9320;50.256;19.026;2023-08-06T05:14:40;19.80;99.90
18388;DHT22;9320;50.256;19.026;2023-08-06T05:17:08;19.70;99.90
18388;DHT22;9320;50.256;19.026;2023-08-06T05:19:36;19.70;99.90
18388;DHT22;9320;50.256;19.026;2023-08-06T05:22:05;19.80;99.90
18388;DHT22;9320;50.256;19.026;2023-08-06T05:24:33;19.70;99.90
18388;DHT22;9320;50.256;19.026;2023-08-06T05:27:01;19.70;99.90
18388;DHT22;9320;50.256;19.026;2023-08-06T05:29:29;19.70;99.90
18388;DHT22;9320;50.256;19.026;2023-08-06T05:31:57;19.80;99.90
18388;DHT22;9320;50.256;19.026;2023-08-06T05:34:25;19.70;99.90
18388;DHT22;9320;50.256;19.026;2023-08-06T05:36:53;19.70;99.90
18388;DHT22;9320;50.256;19.026;2023-08-06T05:39:23;19.70;99.90
18388;DHT22;9320;50.256;19.026;2023-08-06T05:41:51;19.70;99.90
18388;DHT22;9320;50.256;19.026;2023-08-06T05:44:19;19.70;99.90
18388;DHT22;9320;50.256;19.026;2023-08-06T05:46:49;19.60;99.90
18388;DHT22;9320;50.256;19.026;2023-08-06T05:49:18;19.50;99.90
18388;DHT22;9320;50.256;19.026;2023-08-06T05:51:46;19.40;99.90
18388;DHT22;9320;50.256;19.026;2023-08-06T05:54:15;19.40;99.90
18388;DHT22;9320;50.256;19.026;2023-08-06T05:56:44;19.40;99.90
18388;DHT22;9320;50.256;19.026;2023-08-06T05:59:12;19.40;99.90
18388;DHT22;9320;50.256;19.026;2023-08-06T06:01:40;19.20;99.90
18388;DHT22;9320;50.256;19.026;2023-08-06T06:04:08;19.20;99.90
18388;DHT22;9320;50.256;19.026;2023-08-06T06:06:36;19.20;99.90
18388;DHT22;9320;50.256;19.026;2023-08-06T06:09:04;19.20;99.90
18388;DHT22;9320;50.256;19.026;2023-08-06T06:11:32;19.20;99.90
18388;DHT22;9320;50.256;19.026;2023-08-06T06:14:02;19.10;99.90
18388;DHT22;9320;50.256;19.026;2023-08-06T06:16:30;19.00;99.90
18388;DHT22;9320;50.256;19.026;2023-08-06T06:18:58;19.00;99.90
18388;DHT22;9320;50.256;19.026;2023-08-06T06:21:26;18.90;99.90
18388;DHT22;9320;50.256;19.026;2023-08-06T06:23:54;18.80;99.90
18388;DHT22;9320;50.256;19.026;2023-08-06T06:26:23;18.70;99.90
18388;DHT22;9320;50.256;19.026;2023-08-06T06:28:51;18.60;99.90
18388;DHT22;9320;50.256;19.026;2023-08-06T06:31:20;18.40;99.90
18388;DHT22;9320;50.256;19.026;2023-08-06T06:33:48;18.30;99.90
18388;DHT22;9320;50.256;19.026;2023-08-06T06:36:16;18.20;99.90
18388;DHT22;9320;50.256;19.026;2023-08-06T06:38:44;18.10;99.90
18388;DHT22;9320;50.256;19.026;2023-08-06T06:41:12;18.00;99.90
18388;DHT22;9320;50.256;19.026;2023-08-06T06:43:40;17.80;99.90
18388;DHT22;9320;50.256;19.026;2023-08-06T06:46:08;17.40;99.90
18388;DHT22;9320;50.256;19.026;2023-08-06T06:48:38;17.40;99.90
18388;DHT22;9320;50.256;19.026;2023-08-06T06:51:06;17.30;99.90
18388;DHT22;9320;50.256;19.026;2023-08-06T06:53:34;17.20;99.90
18388;DHT22;9320;50.256;19.026;2023-08-06T06:56:03;17.20;99.90
18388;DHT22;9320;50.256;19.026;2023-08-06T06:58:32;17.20;99.90
18388;DHT22;9320;50.256;19.026;2023-08-06T07:01:00;17.20;99.90
18388;DHT22;9320;50.256;19.026;2023-08-06T07:03:28;17.10;99.90
18388;DHT22;9320;50.256;19.026;2023-08-06T07:05:58;17.10;99.90
18388;DHT22;9320;50.256;19.026;2023-08-06T07:08:27;17.10;99.90
18388;DHT22;9320;50.256;19.026;2023-08-06T07:11:00;17.00;99.90
18388;DHT22;9320;50.256;19.026;2023-08-06T07:13:29;16.90;99.90
18388;DHT22;9320;50.256;19.026;2023-08-06T07:15:57;16.90;99.90
18388;DHT22;9320;50.256;19.026;2023-08-06T07:18:26;16.80;99.90
18388;DHT22;9320;50.256;19.026;2023-08-06T07:20:54;16.80;99.90
18388;DHT22;9320;50.256;19.026;2023-08-06T07:23:25;16.70;99.90
18388;DHT22;9320;50.256;19.026;2023-08-06T07:25:53;16.70;99.90
18388;DHT22;9320;50.256;19.026;2023-08-06T07:28:21;16.60;99.90
18388;DHT22;9320;50.256;19.026;2023-08-06T07:30:49;16.70;99.90
18388;DHT22;9320;50.256;19.026;2023-08-06T07:33:17;16.60;99.90
18388;DHT22;9320;50.256;19.026;2023-08-06T07:35:45;16.60;99.90
18388;DHT22;9320;50.256;19.026;2023-08-06T07:38:13;16.60;99.90
18388;DHT22;9320;50.256;19.026;2023-08-06T07:40:43;16.50;99.90
18388;DHT22;9320;50.256;19.026;2023-08-06T07:43:11;16.50;99.90
18388;DHT22;9320;50.256;19.026;2023-08-06T07:45:39;16.50;99.90
18388;DHT22;9320;50.256;19.026;2023-08-06T07:48:07;16.40;99.90
18388;DHT22;9320;50.256;19.026;2023-08-06T07:50:35;16.40;99.90
18388;DHT22;9320;50.256;19.026;2023-08-06T07:53:03;16.30;99.90
18388;DHT22;9320;50.256;19.026;2023-08-06T07:55:31;16.30;99.90
18388;DHT22;9320;50.256;19.026;2023-08-06T07:58:00;16.20;99.90
18388;DHT22;9320;50.256;19.026;2023-08-06T08:00:28;16.20;99.90
18388;DHT22;9320;50.256;19.026;2023-08-06T08:02:56;16.20;99.90
18388;DHT22;9320;50.256;19.026;2023-08-06T08:05:25;16.10;99.90
18388;DHT22;9320;50.256;19.026;2023-08-06T08:07:53;16.20;99.90
18388;DHT22;9320;50.256;19.026;2023-08-06T08:10:21;16.10;99.90
18388;DHT22;9320;50.256;19.026;2023-08-06T08:12:49;16.10;99.90
18388;DHT22;9320;50.256;19.026;2023-08-06T08:15:18;16.10;99.90
18388;DHT22;9320;50.256;19.026;2023-08-06T08:17:46;16.20;99.90
18388;DHT22;9320;50.256;19.026;2023-08-06T08:20:16;16.20;99.90
18388;DHT22;9320;50.256;19.026;2023-08-06T08:22:44;16.20;99.90
18388;DHT22;9320;50.256;19.026;2023-08-06T08:25:13;16.40;99.90
18388;DHT22;9320;50.256;19.026;2023-08-06T08:27:41;16.50;99.90
18388;DHT22;9320;50.256;19.026;2023-08-06T08:30:09;16.50;99.90
18388;DHT22;9320;50.256;19.026;2023-08-06T08:32:39;16.50;99.90
18388;DHT22;9320;50.256;19.026;2023-08-06T08:35:07;16.60;99.90
18388;DHT22;9320;50.256;19.026;2023-08-06T08:37:36;16.70;99.90
18388;DHT22;9320;50.256;19.026;2023-08-06T08:40:05;16.60;99.90
18388;DHT22;9320;50.256;19.026;2023-08-06T08:42:34;16.50;99.90
18388;DHT22;9320;50.256;19.026;2023-08-06T08:45:02;16.50;99.90
18388;DHT22;9320;50.256;19.026;2023-08-06T08:47:32;16.50;99.90
18388;DHT22;9320;50.256;19.026;2023-08-06T08:50:02;16.50;99.90
18388;DHT22;9320;50.256;19.026;2023-08-06T08:52:33;16.50;99.90
18388;DHT22;9320;50.256;19.026;2023-08-06T08:55:02;16.50;99.90
18388;DHT22;9320;50.256;19.026;2023-08-06T08:57:30;16.50;99.90
18388;DHT22;9320;50.256;19.026;2023-08-06T08:59:58;16.60;99.90
18388;DHT22;9320;50.256;19.026;2023-08-06T09:02:28;16.60;99.90
18388;DHT22;9320;50.256;19.026;2023-08-06T09:04:58;16.80;99.90
18388;DHT22;9320;50.256;19.026;2023-08-06T09:07:32;16.80;99.90
18388;DHT22;9320;50.256;19.026;2023-08-06T09:10:03;16.80;99.90
18388;DHT22;9320;50.256;19.026;2023-08-06T09:12:32;16.90;99.90
18388;DHT22;9320;50.256;19.026;2023-08-06T09:15:00;16.90;99.90
18388;DHT22;9320;50.256;19.026;2023-08-06T09:17:30;16.80;99.90
18388;DHT22;9320;50.256;19.026;2023-08-06T09:19:58;16.90;99.90
18388;DHT22;9320;50.256;19.026;2023-08-06T09:22:33;16.80;99.90
18388;DHT22;9320;50.256;19.026;2023-08-06T09:25:02;16.90;99.90
18388;DHT22;9320;50.256;19.026;2023-08-06T09:27:36;16.80;99.90
18388;DHT22;9320;50.256;19.026;2023-08-06T09:30:06;16.70;99.90
18388;DHT22;9320;50.256;19.026;2023-08-06T09:32:48;16.60;99.90
18388;DHT22;9320;50.256;19.026;2023-08-06T09:35:18;16.70;99.90
18388;DHT22;9320;50.256;19.026;2023-08-06T09:37:48;16.70;99.90
18388;DHT22;9320;50.256;19.026;2023-08-06T09:40:26;16.80;99.90
18388;DHT22;9320;50.256;19.026;2023-08-06T09:42:54;16.90;99.90
18388;DHT22;9320;50.256;19.026;2023-08-06T09:45:23;17.00;99.90
18388;DHT22;9320;50.256;19.026;2023-08-06T09:47:55;17.00;99.90
18388;DHT22;9320;50.256;19.026;2023-08-06T09:50:28;17.00;99.90
18388;DHT22;9320;50.256;19.026;2023-08-06T09:52:59;17.00;99.90
18388;DHT22;9320;50.256;19.026;2023-08-06T09:55:27;17.10;99.90
18388;DHT22;9320;50.256;19.026;2023-08-06T09:57:55;17.00;99.90
18388;DHT22;9320;50.256;19.026;2023-08-06T10:00:23;17.00;99.90
18388;DHT22;9320;50.256;19.026;2023-08-06T10:02:53;17.00;99.90
18388;DHT22;9320;50.256;19.026;2023-08-06T10:05:23;17.00;99.90
18388;DHT22;9320;50.256;19.026;2023-08-06T10:07:52;17.00;99.90
18388;DHT22;9320;50.256;19.026;2023-08-06T10:10:23;17.00;99.90
18388;DHT22;9320;50.256;19.026;2023-08-06T10:12:55;17.00;99.90
18388;DHT22;9320;50.256;19.026;2023-08-06T10:15:26;17.00;99.90
18388;DHT22;9320;50.256;19.026;2023-08-06T10:17:57;17.00;99.90
18388;DHT22;9320;50.256;19.026;2023-08-06T10:20:26;17.00;99.90
18388;DHT22;9320;50.256;19.026;2023-08-06T10:23:01;17.00;99.90
18388;DHT22;9320;50.256;19.026;2023-08-06T10:25:34;16.90;99.90
18388;DHT22;9320;50.256;19.026;2023-08-06T10:28:08;17.00;99.90
18388;DHT22;9320;50.256;19.026;2023-08-06T10:30:47;17.00;99.90
18388;DHT22;9320;50.256;19.026;2023-08-06T10:33:15;17.00;99.90
18388;DHT22;9320;50.256;19.026;2023-08-06T10:35:44;17.00;99.90
18388;DHT22;9320;50.256;19.026;2023-08-06T10:38:17;17.00;99.90
18388;DHT22;9320;50.256;19.026;2023-08-06T10:40:52;17.00;99.90
18388;DHT22;9320;50.256;19.026;2023-08-06T10:43:27;16.90;99.90
18388;DHT22;9320;50.256;19.026;2023-08-06T10:45:57;17.00;99.90
18388;DHT22;9320;50.256;19.026;2023-08-06T10:48:29;17.00;99.90
18388;DHT22;9320;50.256;19.026;2023-08-06T10:50:59;17.00;99.90
18388;DHT22;9320;50.256;19.026;2023-08-06T10:53:28;17.10;99.90
18388;DHT22;9320;50.256;19.026;2023-08-06T10:56:01;17.10;99.90
18388;DHT22;9320;50.256;19.026;2023-08-06T10:58:33;17.10;99.90
18388;DHT22;9320;50.256;19.026;2023-08-06T11:01:01;17.20;99.90
18388;DHT22;9320;50.256;19.026;2023-08-06T11:03:29;17.20;99.90
18388;DHT22;9320;50.256;19.026;2023-08-06T11:05:57;17.20;99.90
18388;DHT22;9320;50.256;19.026;2023-08-06T11:08:26;17.20;99.90
18388;DHT22;9320;50.256;19.026;2023-08-06T11:10:54;17.20;99.90
18388;DHT22;9320;50.256;19.026;2023-08-06T11:13:31;17.20;99.90
18388;DHT22;9320;50.256;19.026;2023-08-06T11:15:59;17.30;99.90
18388;DHT22;9320;50.256;19.026;2023-08-06T11:18:28;17.30;99.90
18388;DHT22;9320;50.256;19.026;2023-08-06T11:20:58;17.30;99.90
18388;DHT22;9320;50.256;19.026;2023-08-06T11:23:27;17.20;99.90
18388;DHT22;9320;50.256;19.026;2023-08-06T11:25:56;17.20;99.90
18388;DHT22;9320;50.256;19.026;2023-08-06T11:28:25;17.10;99.90
18388;DHT22;9320;50.256;19.026;2023-08-06T11:30:54;17.10;99.90
18388;DHT22;9320;50.256;19.026;2023-08-06T11:33:24;17.10;99.90
18388;DHT22;9320;50.256;19.026;2023-08-06T11:35:55;17.10;99.90
18388;DHT22;9320;50.256;19.026;2023-08-06T11:38:24;17.20;99.90
18388;DHT22;9320;50.256;19.026;2023-08-06T11:40:53;17.30;99.90
18388;DHT22;9320;50.256;19.026;2023-08-06T11:43:21;17.50;99.90
18388;DHT22;9320;50.256;19.026;2023-08-06T11:45:50;17.60;99.90
18388;DHT22;9320;50.256;19.026;2023-08-06T11:48:22;17.70;99.90
18388;DHT22;9320;50.256;19.026;2023-08-06T11:50:54;17.70;99.90
18388;DHT22;9320;50.256;19.026;2023-08-06T11:53:27;17.60;99.90
18388;DHT22;9320;50.256;19.026;2023-08-06T11:55:55;17.60;99.90
18388;DHT22;9320;50.256;19.026;2023-08-06T11:58:23;17.50;99.90
18388;DHT22;9320;50.256;19.026;2023-08-06T12:00:52;17.60;99.90
18388;DHT22;9320;50.256;19.026;2023-08-06T12:03:22;17.60;99.90
18388;DHT22;9320;50.256;19.026;2023-08-06T12:05:54;17.50;99.90
18388;DHT22;9320;50.256;19.026;2023-08-06T12:08:26;17.50;99.90
18388;DHT22;9320;50.256;19.026;2023-08-06T12:10:55;17.60;99.90
18388;DHT22;9320;50.256;19.026;2023-08-06T12:13:23;17.70;99.90
18388;DHT22;9320;50.256;19.026;2023-08-06T12:15:51;17.80;99.90
18388;DHT22;9320;50.256;19.026;2023-08-06T12:18:21;17.90;99.90
18388;DHT22;9320;50.256;19.026;2023-08-06T12:20:49;17.80;99.90
18388;DHT22;9320;50.256;19.026;2023-08-06T12:23:18;17.90;99.90
18388;DHT22;9320;50.256;19.026;2023-08-06T12:25:46;18.00;99.90
18388;DHT22;9320;50.256;19.026;2023-08-06T12:28:14;18.20;99.90
18388;DHT22;9320;50.256;19.026;2023-08-06T12:30:42;18.30;99.90
18388;DHT22;9320;50.256;19.026;2023-08-06T12:33:11;18.40;99.90
18388;DHT22;9320;50.256;19.026;2023-08-06T12:35:41;18.40;99.90
18388;DHT22;9320;50.256;19.026;2023-08-06T12:38:09;18.30;99.90
18388;DHT22;9320;50.256;19.026;2023-08-06T12:40:37;18.30;99.90
18388;DHT22;9320;50.256;19.026;2023-08-06T12:43:09;18.40;99.90
18388;DHT22;9320;50.256;19.026;2023-08-06T12:45:37;18.30;99.90
18388;DHT22;9320;50.256;19.026;2023-08-06T12:48:05;18.40;99.90
18388;DHT22;9320;50.256;19.026;2023-08-06T12:50:33;18.30;99.90
18388;DHT22;9320;50.256;19.026;2023-08-06T12:53:03;18.10;99.90
18388;DHT22;9320;50.256;19.026;2023-08-06T12:55:32;18.10;99.90
18388;DHT22;9320;50.256;19.026;2023-08-06T12:58:00;18.10;99.90
18388;DHT22;9320;50.256;19.026;2023-08-06T13:00:28;18.30;99.90
18388;DHT22;9320;50.256;19.026;2023-08-06T13:02:57;18.40;99.90
18388;DHT22;9320;50.256;19.026;2023-08-06T13:05:25;18.50;99.90
18388;DHT22;9320;50.256;19.026;2023-08-06T13:07:53;18.60;99.90
18388;DHT22;9320;50.256;19.026;2023-08-06T13:10:22;18.60;99.90
18388;DHT22;9320;50.256;19.026;2023-08-06T13:12:51;18.50;99.90
18388;DHT22;9320;50.256;19.026;2023-08-06T13:15:19;18.60;99.90
18388;DHT22;9320;50.256;19.026;2023-08-06T13:17:48;18.60;99.90
18388;DHT22;9320;50.256;19.026;2023-08-06T13:20:16;18.50;99.90
18388;DHT22;9320;50.256;19.026;2023-08-06T13:22:46;18.40;99.90
18388;DHT22;9320;50.256;19.026;2023-08-06T13:25:18;18.50;99.90
18388;DHT22;9320;50.256;19.026;2023-08-06T13:27:47;18.80;99.90
18388;DHT22;9320;50.256;19.026;2023-08-06T13:30:15;19.00;99.90
18388;DHT22;9320;50.256;19.026;2023-08-06T13:32:44;18.90;99.90
18388;DHT22;9320;50.256;19.026;2023-08-06T13:35:13;18.90;99.90
18388;DHT22;9320;50.256;19.026;2023-08-06T13:37:41;18.90;99.90
18388;DHT22;9320;50.256;19.026;2023-08-06T13:40:09;19.00;99.90
18388;DHT22;9320;50.256;19.026;2023-08-06T13:42:37;18.80;99.90
18388;DHT22;9320;50.256;19.026;2023-08-06T13:45:08;18.80;99.90
18388;DHT22;9320;50.256;19.026;2023-08-06T13:47:36;18.70;99.90
18388;DHT22;9320;50.256;19.026;2023-08-06T13:50:05;18.40;99.90
18388;DHT22;9320;50.256;19.026;2023-08-06T13:52:33;18.30;99.90
18388;DHT22;9320;50.256;19.026;2023-08-06T13:55:02;18.20;99.90
18388;DHT22;9320;50.256;19.026;2023-08-06T13:57:31;18.20;99.90
18388;DHT22;9320;50.256;19.026;2023-08-06T13:59:59;18.10;99.90
18388;DHT22;9320;50.256;19.026;2023-08-06T14:02:28;18.00;99.90
18388;DHT22;9320;50.256;19.026;2023-08-06T14:04:56;18.00;99.90
18388;DHT22;9320;50.256;19.026;2023-08-06T14:07:24;18.10;99.90
18388;DHT22;9320;50.256;19.026;2023-08-06T14:09:52;18.30;99.90
18388;DHT22;9320;50.256;19.026;2023-08-06T14:12:20;18.20;99.90
18388;DHT22;9320;50.256;19.026;2023-08-06T14:14:48;18.40;99.90
18388;DHT22;9320;50.256;19.026;2023-08-06T14:17:16;18.50;99.90
18388;DHT22;9320;50.256;19.026;2023-08-06T14:19:46;18.40;99.90
18388;DHT22;9320;50.256;19.026;2023-08-06T14:22:14;18.50;99.90
18388;DHT22;9320;50.256;19.026;2023-08-06T14:24:42;18.50;99.90
18388;DHT22;9320;50.256;19.026;2023-08-06T14:27:10;18.20;99.90
18388;DHT22;9320;50.256;19.026;2023-08-06T14:29:38;18.20;99.90
18388;DHT22;9320;50.256;19.026;2023-08-06T14:32:06;18.10;99.90
18388;DHT22;9320;50.256;19.026;2023-08-06T14:34:34;18.00;99.90
18388;DHT22;9320;50.256;19.026;2023-08-06T14:37:04;17.90;99.90
18388;DHT22;9320;50.256;19.026;2023-08-06T14:39:32;18.10;99.90
18388;DHT22;9320;50.256;19.026;2023-08-06T14:42:00;18.10;99.90
18388;DHT22;9320;50.256;19.026;2023-08-06T14:44:29;18.10;99.90
18388;DHT22;9320;50.256;19.026;2023-08-06T14:46:57;18.00;99.90
18388;DHT22;9320;50.256;19.026;2023-08-06T14:49:25;17.90;99.90
18388;DHT22;9320;50.256;19.026;2023-08-06T14:51:53;17.90;99.90
18388;DHT22;9320;50.256;19.026;2023-08-06T14:54:22;17.90;99.90
18388;DHT22;9320;50.256;19.026;2023-08-06T14:56:50;17.80;99.90
18388;DHT22;9320;50.256;19.026;2023-08-06T14:59:19;17.70;99.90
18388;DHT22;9320;50.256;19.026;2023-08-06T15:01:47;17.70;99.90
18388;DHT22;9320;50.256;19.026;2023-08-06T15:04:15;17.60;99.90
18388;DHT22;9320;50.256;19.026;2023-08-06T15:06:43;17.60;99.90
18388;DHT22;9320;50.256;19.026;2023-08-06T15:09:11;17.60;99.90
18388;DHT22;9320;50.256;19.026;2023-08-06T15:11:40;17.70;99.90
18388;DHT22;9320;50.256;19.026;2023-08-06T15:14:09;17.70;99.90
18388;DHT22;9320;50.256;19.026;2023-08-06T15:16:38;17.70;99.90
18388;DHT22;9320;50.256;19.026;2023-08-06T15:19:06;17.80;99.90
18388;DHT22;9320;50.256;19.026;2023-08-06T15:21:34;17.70;99.90
18388;DHT22;9320;50.256;19.026;2023-08-06T15:24:02;17.70;99.90
18388;DHT22;9320;50.256;19.026;2023-08-06T15:26:30;17.60;99.90
18388;DHT22;9320;50.256;19.026;2023-08-06T15:28:59;17.60;99.90
18388;DHT22;9320;50.256;19.026;2023-08-06T15:31:35;17.60;99.90
18388;DHT22;9320;50.256;19.026;2023-08-06T15:34:04;17.60;99.90
18388;DHT22;9320;50.256;19.026;2023-08-06T15:36:32;17.50;99.90
18388;DHT22;9320;50.256;19.026;2023-08-06T15:39:00;17.30;99.90
18388;DHT22;9320;50.256;19.026;2023-08-06T15:41:30;17.30;99.90